DE-0197 weather

Heinsberg
North Rhine-Westphalia, Germany

Public forecast

Using degrees Celsius for public forecast. Weather courtesy of forecast.io.

METAR (pilot weather report)

Report is more than 6 hours old.

Closest report is Geilenkirchen Air Base, 5.4 nm (10.0 km) S. Retrieved 2019/04/18 17:50 UTC (22 hours ago):

ETNG 181750Z 11006KT CAVOK 21/04 Q1023 NOSIG

TAF (pilot weather forecast)

Forecast is more than 12 hours old.

Closest forecast is Geilenkirchen Air Base, 5.4 nm (10.0 km) S. Retrieved 2019/04/18 18:08 UTC (22 hours ago):

TAF ETNG 181700Z 1818/1909 09005KT CAVOK